Time;durP1;ratioP1;P1;durP2;ratioP2;P2;SDS_P1;SDS_P2;PMS_P1;PMS_P2;Temp;Humidity;BMP_temperature;BMP_pressure;BME280_temperature;BME280_humidity;BME280_pressure;Samples;Min_cycle;Max_cycle;Signal;HPM_P1;HPM_P2
2021/03/17 00:01:29;;;;;;;12.40;5.90;;;;;;;2.11;100.00;96620.25;5036405;28;20543;-73
2021/03/17 00:03:55;;;;;;;14.60;6.80;;;;;;;2.16;100.00;96617.31;5036681;28;20208;-73
2021/03/17 00:06:21;;;;;;;18.07;6.67;;;;;;;2.16;100.00;96610.34;5035707;28;20212;-73
2021/03/17 00:08:47;;;;;;;16.37;7.33;;;;;;;2.16;100.00;96619.91;5036250;28;20197;-74
2021/03/17 00:11:14;;;;;;;14.03;6.77;;;;;;;2.14;100.00;96614.00;5036244;28;20205;-73
2021/03/17 00:13:39;;;;;;;16.10;6.40;;;;;;;2.07;100.00;96605.03;5036212;28;20228;-73
2021/03/17 00:16:06;;;;;;;12.33;6.30;;;;;;;2.11;100.00;96612.44;5035212;28;20300;-73
2021/03/17 00:18:33;;;;;;;16.80;6.73;;;;;;;2.20;100.00;96605.72;5036317;28;20204;-73
2021/03/17 00:20:59;;;;;;;13.63;6.63;;;;;;;2.11;100.00;96604.66;5036369;28;20246;-73
2021/03/17 00:23:25;;;;;;;16.60;7.10;;;;;;;2.21;100.00;96610.81;5035953;28;20554;-73
2021/03/17 00:25:51;;;;;;;15.33;6.80;;;;;;;2.23;100.00;96605.50;5035492;28;20294;-73
2021/03/17 00:28:17;;;;;;;13.20;6.77;;;;;;;2.22;100.00;96603.84;5036059;28;20291;-73
2021/03/17 00:30:43;;;;;;;19.13;7.53;;;;;;;2.23;100.00;96597.69;5039669;28;20213;-73
2021/03/17 00:33:10;;;;;;;15.90;6.57;;;;;;;2.29;100.00;96600.66;5039699;28;20320;-72
2021/03/17 00:35:38;;;;;;;17.13;7.27;;;;;;;2.32;100.00;96596.97;5038916;28;20770;-73
2021/03/17 00:38:04;;;;;;;18.93;7.07;;;;;;;2.34;100.00;96597.69;5039923;28;20197;-72
2021/03/17 00:40:31;;;;;;;19.83;7.40;;;;;;;2.33;100.00;96596.03;5039973;28;20205;-72
2021/03/17 00:42:56;;;;;;;17.23;7.47;;;;;;;2.36;100.00;96599.25;5039513;28;20980;-73
2021/03/17 00:45:23;;;;;;;19.93;7.57;;;;;;;2.37;100.00;96587.91;5038730;28;20237;-73
2021/03/17 00:47:49;;;;;;;19.03;7.20;;;;;;;2.39;100.00;96596.38;5039502;28;20202;-72
2021/03/17 00:50:17;;;;;;;21.67;7.67;;;;;;;2.40;100.00;96596.25;5040048;28;20251;-73
2021/03/17 00:52:44;;;;;;;17.53;7.00;;;;;;;2.43;100.00;96598.66;5039652;28;20927;-73
2021/03/17 00:55:11;;;;;;;17.47;7.90;;;;;;;2.36;100.00;96596.63;5037976;28;20228;-73
2021/03/17 00:57:37;;;;;;;18.63;7.77;;;;;;;2.26;100.00;96594.88;5039849;28;20254;-73
2021/03/17 01:00:05;;;;;;;15.23;7.37;;;;;;;2.26;100.00;96585.28;5039717;28;20205;-73
2021/03/17 01:02:31;;;;;;;16.63;7.13;;;;;;;2.12;100.00;96576.91;5039114;28;20201;-73
2021/03/17 01:04:57;;;;;;;14.30;7.10;;;;;;;2.00;100.00;96573.47;5039574;28;20283;-73
2021/03/17 01:07:23;;;;;;;14.03;7.80;;;;;;;1.98;100.00;96569.34;5038994;28;20205;-72
2021/03/17 01:09:49;;;;;;;15.70;7.70;;;;;;;2.04;100.00;96568.88;5038493;28;21096;-73
2021/03/17 01:12:16;;;;;;;20.53;8.80;;;;;;;2.04;100.00;96574.91;5039026;28;20227;-72
2021/03/17 01:14:43;;;;;;;18.03;8.67;;;;;;;2.01;100.00;96563.91;5039907;28;20223;-73
2021/03/17 01:17:09;;;;;;;15.33;7.90;;;;;;;2.05;100.00;96568.75;5038507;28;20206;-73
2021/03/17 01:19:35;;;;;;;20.23;8.87;;;;;;;2.05;100.00;96568.75;5039005;28;20211;-72
2021/03/17 01:22:01;;;;;;;18.30;8.67;;;;;;;2.05;100.00;96567.91;5038536;28;20331;-73
2021/03/17 01:24:27;;;;;;;17.33;8.67;;;;;;;2.03;100.00;96562.03;5039081;28;20224;-73
2021/03/17 01:26:54;;;;;;;19.03;8.90;;;;;;;1.96;100.00;96560.81;5038469;28;20204;-73
2021/03/17 01:29:20;;;;;;;15.40;8.23;;;;;;;1.96;100.00;96563.41;5038288;28;20262;-73
2021/03/17 01:31:46;;;;;;;19.77;8.97;;;;;;;2.00;100.00;96560.50;5038853;28;20295;-73
2021/03/17 01:34:12;;;;;;;18.00;9.13;;;;;;;2.02;100.00;96560.38;5038676;28;20231;-73
2021/03/17 01:36:38;;;;;;;20.87;9.73;;;;;;;1.96;100.00;96553.88;5037769;28;20212;-73
2021/03/17 01:39:05;;;;;;;23.03;10.13;;;;;;;1.93;100.00;96551.50;5038744;28;20231;-73
2021/03/17 01:41:31;;;;;;;21.03;10.00;;;;;;;2.06;100.00;96543.59;5037582;28;20216;-73
2021/03/17 01:43:58;;;;;;;21.20;10.23;;;;;;;2.01;100.00;96545.72;5038574;28;20232;-73
2021/03/17 01:46:24;;;;;;;21.13;10.23;;;;;;;2.06;100.00;96541.00;5037828;28;20211;-73
2021/03/17 01:48:50;;;;;;;22.20;10.17;;;;;;;2.11;100.00;96541.47;5038631;28;20624;-73
2021/03/17 01:51:16;;;;;;;26.00;10.67;;;;;;;2.08;100.00;96539.09;5037934;28;20197;-73
2021/03/17 01:53:42;;;;;;;22.93;11.03;;;;;;;2.12;100.00;96538.75;5038056;28;20229;-73
2021/03/17 01:56:09;;;;;;;25.17;11.30;;;;;;;2.19;100.00;96531.28;5038099;28;20201;-73
2021/03/17 01:58:36;;;;;;;23.37;11.07;;;;;;;2.15;100.00;96535.94;5038093;28;20977;-73
2021/03/17 02:01:04;;;;;;;22.73;10.30;;;;;;;2.21;100.00;96530.22;5038236;28;20197;-73
2021/03/17 02:03:31;;;;;;;20.93;10.43;;;;;;;2.12;100.00;96530.13;5038143;28;20200;-73
2021/03/17 02:05:57;;;;;;;24.53;10.07;;;;;;;2.17;100.00;96533.19;5037266;28;20239;-73
2021/03/17 02:08:25;;;;;;;29.43;10.43;;;;;;;2.14;100.00;96533.41;5037643;28;20258;-73
2021/03/17 02:10:52;;;;;;;21.90;11.13;;;;;;;2.15;100.00;96524.69;5037972;28;20562;-73
2021/03/17 02:13:49;;;;;;;22.27;10.70;;;;;;;2.16;100.00;96521.97;5038158;28;20241;-73
2021/03/17 02:16:24;;;;;;;33.37;10.23;;;;;;;2.29;100.00;96527.03;5031283;28;20197;-73
2021/03/17 02:19:22;;;;;;;19.40;10.13;;;;;;;2.34;100.00;96522.28;5038095;28;20205;-73
2021/03/17 02:22:21;;;;;;;20.47;9.60;;;;;;;2.44;100.00;96522.28;5037355;28;20205;-73
2021/03/17 02:24:52;;;;;;;20.53;9.83;;;;;;;2.44;100.00;96524.91;5037441;28;20231;-73
2021/03/17 02:27:47;;;;;;;24.67;10.23;;;;;;;2.34;100.00;96517.09;5038125;28;20197;-73
2021/03/17 02:30:33;;;;;;;21.13;10.00;;;;;;;2.40;100.00;96509.63;5037091;28;20203;-73
2021/03/17 02:33:38;;;;;;;25.23;10.50;;;;;;;2.32;100.00;96521.59;5037436;28;20229;-73
2021/03/17 02:36:10;;;;;;;22.37;10.17;;;;;;;2.25;100.00;96526.44;5037231;28;20208;-73
2021/03/17 02:38:38;;;;;;;25.47;10.37;;;;;;;2.13;100.00;96517.00;5037539;28;20263;-73
2021/03/17 02:41:06;;;;;;;20.67;10.70;;;;;;;2.13;100.00;96517.00;5037522;28;21329;-73
2021/03/17 02:43:35;;;;;;;20.60;10.37;;;;;;;2.17;100.00;96518.41;5036997;28;20668;-73
2021/03/17 02:46:07;;;;;;;27.53;10.70;;;;;;;2.17;100.00;96518.41;5036622;28;20221;-73
2021/03/17 02:48:39;;;;;;;28.80;11.33;;;;;;;2.18;100.00;96519.25;5037565;28;20562;-73
2021/03/17 02:51:09;;;;;;;21.13;9.47;;;;;;;2.23;100.00;96523.16;5037654;28;20205;-73
2021/03/17 02:53:37;;;;;;;22.00;9.93;;;;;;;2.22;100.00;96524.09;5037026;28;20236;-73
2021/03/17 02:56:08;;;;;;;19.93;9.90;;;;;;;2.24;100.00;96523.97;5036607;28;20205;-73
2021/03/17 02:58:36;;;;;;;26.63;10.07;;;;;;;2.35;100.00;96521.34;5037562;28;20215;-73
2021/03/17 03:01:04;;;;;;;26.00;10.27;;;;;;;2.28;100.00;96520.16;5037242;28;20205;-73
2021/03/17 03:03:33;;;;;;;21.40;10.40;;;;;;;2.26;100.00;96528.09;5036863;28;20252;-73
2021/03/17 03:06:03;;;;;;;22.50;9.47;;;;;;;2.36;100.00;96517.81;5036233;28;20704;-73
2021/03/17 03:08:29;;;;;;;20.93;10.10;;;;;;;2.35;100.00;96522.16;5036859;28;20201;-73
2021/03/17 03:10:56;;;;;;;24.67;10.00;;;;;;;2.32;100.00;96519.81;5036639;28;20209;-73
2021/03/17 03:13:25;;;;;;;24.73;10.90;;;;;;;2.24;100.00;96522.22;5037105;28;20596;-73
2021/03/17 03:15:51;;;;;;;21.70;11.17;;;;;;;2.10;100.00;96516.41;5036053;28;20743;-73
2021/03/17 03:18:18;;;;;;;24.03;11.17;;;;;;;2.22;100.00;96518.06;5036864;28;20212;-73
2021/03/17 03:20:45;;;;;;;24.40;10.80;;;;;;;2.27;100.00;96515.94;5036781;28;20571;-73
2021/03/17 03:23:12;;;;;;;21.47;10.57;;;;;;;2.29;100.00;96520.06;5036837;28;20259;-73
2021/03/17 03:25:39;;;;;;;21.47;10.50;;;;;;;2.35;100.00;96522.16;5035751;28;20220;-73
2021/03/17 03:28:11;;;;;;;26.00;11.10;;;;;;;2.33;100.00;96515.44;5037005;28;20208;-73
2021/03/17 03:30:42;;;;;;;21.00;10.30;;;;;;;2.30;100.00;96515.69;5037160;28;20208;-73
2021/03/17 03:33:09;;;;;;;28.37;11.80;;;;;;;2.22;100.00;96515.47;5036283;28;20228;-73
2021/03/17 03:35:35;;;;;;;25.17;11.17;;;;;;;2.17;100.00;96517.59;5035730;28;20225;-73
2021/03/17 03:38:04;;;;;;;22.40;11.50;;;;;;;2.23;100.00;96523.16;5037400;28;20206;-73
2021/03/17 03:40:31;;;;;;;22.93;11.13;;;;;;;2.30;100.00;96521.72;5034436;28;20906;-73
2021/03/17 03:42:57;;;;;;;25.00;12.13;;;;;;;2.23;100.00;96520.53;5036342;28;20602;-73
2021/03/17 03:45:23;;;;;;;26.70;11.53;;;;;;;2.19;100.00;96518.28;5035720;28;20221;-73
2021/03/17 03:47:49;;;;;;;24.27;11.10;;;;;;;2.20;100.00;96515.59;5036775;28;20224;-73
2021/03/17 03:50:18;;;;;;;29.50;12.20;;;;;;;2.06;100.00;96521.03;5036695;28;20212;-73
2021/03/17 03:52:50;;;;;;;23.37;11.47;;;;;;;2.08;100.00;96526.13;5036192;28;20596;-73
2021/03/17 03:55:23;;;;;;;25.50;11.87;;;;;;;2.10;100.00;96532.84;5036065;28;20631;-73
2021/03/17 03:57:52;;;;;;;23.67;10.40;;;;;;;2.20;100.00;96531.19;5036088;28;20208;-73
2021/03/17 04:00:22;;;;;;;25.00;11.40;;;;;;;2.26;100.00;96529.88;5036518;28;20245;-73
2021/03/17 04:02:51;;;;;;;23.83;11.37;;;;;;;2.29;100.00;96530.47;5036715;28;20538;-73
2021/03/17 04:05:19;;;;;;;21.03;10.13;;;;;;;2.32;100.00;96526.78;5039045;28;20231;-73
2021/03/17 04:07:48;;;;;;;20.07;10.47;;;;;;;2.40;100.00;96531.25;5040311;28;20648;-73
2021/03/17 04:10:16;;;;;;;19.30;10.00;;;;;;;2.50;100.00;96527.00;5040666;28;20231;-73
2021/03/17 04:12:44;;;;;;;21.37;10.90;;;;;;;2.48;100.00;96533.25;5040237;28;21144;-73
2021/03/17 04:15:14;;;;;;;20.20;10.50;;;;;;;2.51;100.00;96533.84;5039470;28;20232;-73
2021/03/17 04:17:49;;;;;;;19.60;10.27;;;;;;;2.55;100.00;96534.44;5040070;28;20211;-73
2021/03/17 04:20:18;;;;;;;19.93;9.73;;;;;;;2.55;100.00;96537.84;5040491;28;20228;-73
2021/03/17 04:22:47;;;;;;;25.20;11.50;;;;;;;2.49;100.00;96535.72;5039594;28;20209;-73
2021/03/17 04:25:15;;;;;;;17.33;9.77;;;;;;;2.46;100.00;96535.97;5039269;28;20844;-73
2021/03/17 04:27:45;;;;;;;19.23;10.60;;;;;;;2.41;100.00;96535.53;5039754;28;20236;-73
2021/03/17 04:30:14;;;;;;;21.07;10.60;;;;;;;2.46;100.00;96532.56;5039893;28;20251;-73
2021/03/17 04:32:42;;;;;;;20.87;10.00;;;;;;;2.47;100.00;96540.25;5039772;28;20599;-73
2021/03/17 04:35:09;;;;;;;19.23;9.87;;;;;;;2.47;100.00;96535.03;5039636;28;20216;-74
2021/03/17 04:37:36;;;;;;;19.77;9.87;;;;;;;2.42;100.00;96539.78;5039821;28;20228;-73
2021/03/17 04:40:04;;;;;;;18.73;9.37;;;;;;;2.41;100.00;96532.91;5039889;28;20626;-73
2021/03/17 04:42:31;;;;;;;24.63;10.13;;;;;;;2.32;100.00;96542.38;5039528;28;20232;-73
2021/03/17 04:44:57;;;;;;;22.27;10.10;;;;;;;2.31;100.00;96535.56;5040159;28;20271;-73
2021/03/17 04:47:26;;;;;;;19.87;9.43;;;;;;;2.27;100.00;96542.75;5038705;28;20578;-73
2021/03/17 04:49:54;;;;;;;21.50;9.40;;;;;;;2.23;100.00;96543.09;5039063;28;20205;-73
2021/03/17 04:52:24;;;;;;;21.83;10.07;;;;;;;2.23;100.00;96540.50;5040603;28;20291;-73
2021/03/17 04:54:50;;;;;;;22.77;10.13;;;;;;;2.22;100.00;96531.88;5039247;28;20228;-73
2021/03/17 04:57:20;;;;;;;21.53;9.50;;;;;;;2.29;100.00;96527.03;5038568;28;20213;-73
2021/03/17 04:59:48;;;;;;;21.63;10.20;;;;;;;2.26;100.00;96529.88;5039447;28;20205;-73
2021/03/17 05:02:17;;;;;;;23.03;10.33;;;;;;;2.33;100.00;96533.63;5039680;28;20197;-73
2021/03/17 05:04:45;;;;;;;23.10;9.90;;;;;;;2.28;100.00;96527.97;5038593;28;20980;-73
2021/03/17 05:07:13;;;;;;;25.87;10.63;;;;;;;2.27;100.00;96526.34;5038611;28;20204;-73
2021/03/17 05:09:40;;;;;;;22.77;11.30;;;;;;;2.22;100.00;96526.69;5039122;28;20212;-73
2021/03/17 05:12:08;;;;;;;26.57;12.30;;;;;;;2.15;100.00;96522.09;5039287;28;20213;-73
2021/03/17 05:14:35;;;;;;;27.87;11.33;;;;;;;2.07;100.00;96527.06;5039268;28;20228;-73
2021/03/17 05:17:03;;;;;;;22.87;11.50;;;;;;;2.00;100.00;96528.50;5038249;28;20200;-73
2021/03/17 05:19:30;;;;;;;21.80;9.87;;;;;;;2.05;100.00;96531.53;5038762;28;20197;-73
2021/03/17 05:21:57;;;;;;;26.43;11.30;;;;;;;2.06;100.00;96530.59;5038935;28;20202;-73
2021/03/17 05:24:25;;;;;;;18.53;9.23;;;;;;;2.08;100.00;96536.50;5039285;28;20217;-73
2021/03/17 05:26:51;;;;;;;23.20;8.97;;;;;;;2.07;100.00;96530.47;5038086;28;20205;-73
2021/03/17 05:29:20;;;;;;;18.03;8.33;;;;;;;2.11;100.00;96531.88;5038819;28;20262;-75
2021/03/17 05:31:47;;;;;;;26.07;11.37;;;;;;;2.04;100.00;96533.31;5038771;28;20216;-73
2021/03/17 05:34:13;;;;;;;16.83;8.70;;;;;;;2.00;100.00;96536.28;5038920;28;20641;-73
2021/03/17 05:36:40;;;;;;;22.90;11.33;;;;;;;2.03;100.00;96533.44;5037891;28;20233;-73
2021/03/17 05:39:06;;;;;;;24.03;10.20;;;;;;;2.09;100.00;96535.56;5038834;28;20212;-73
2021/03/17 05:41:34;;;;;;;17.73;8.23;;;;;;;2.18;100.00;96540.06;5038177;28;20699;-73
2021/03/17 05:44:00;;;;;;;16.63;7.77;;;;;;;2.19;100.00;96541.69;5038604;28;20245;-73
2021/03/17 05:46:27;;;;;;;15.67;7.37;;;;;;;2.15;100.00;96542.88;5037383;28;20213;-73
2021/03/17 05:48:53;;;;;;;15.27;6.87;;;;;;;2.09;100.00;96545.97;5038850;28;20209;-73
2021/03/17 05:51:20;;;;;;;13.30;6.87;;;;;;;2.18;100.00;96550.44;5038719;28;20213;-74
2021/03/17 05:53:46;;;;;;;19.17;7.50;;;;;;;2.19;100.00;96562.47;5037922;28;20263;-73
2021/03/17 05:56:14;;;;;;;14.73;6.77;;;;;;;2.21;100.00;96558.81;5038227;28;20675;-73
2021/03/17 05:58:42;;;;;;;14.47;6.60;;;;;;;2.19;100.00;96558.13;5038575;28;20209;-73
2021/03/17 06:01:08;;;;;;;12.87;6.93;;;;;;;2.15;100.00;96566.25;5038077;28;20575;-73
2021/03/17 06:03:36;;;;;;;15.47;6.37;;;;;;;2.33;100.00;96560.47;5038033;28;20742;-73
2021/03/17 06:06:03;;;;;;;12.57;6.67;;;;;;;2.40;100.00;96571.22;5038221;28;20228;-73
2021/03/17 06:08:37;;;;;;;12.40;6.37;;;;;;;2.40;100.00;96575.47;5038077;28;20209;-73
2021/03/17 06:11:03;;;;;;;12.67;6.30;;;;;;;2.34;100.00;96579.50;5037687;28;21392;-73
2021/03/17 06:13:34;;;;;;;12.93;6.40;;;;;;;2.40;100.00;96579.84;5038074;28;20225;-73
2021/03/17 06:16:05;;;;;;;14.70;6.93;;;;;;;2.37;100.00;96579.25;5037770;28;20221;-73
2021/03/17 06:18:36;;;;;;;12.37;6.60;;;;;;;2.37;100.00;96589.66;5038459;28;20208;-73
2021/03/17 06:21:03;;;;;;;13.33;5.67;;;;;;;2.36;100.00;96586.25;5038026;28;20201;-73
2021/03/17 06:23:29;;;;;;;19.73;7.77;;;;;;;2.38;100.00;96591.31;5037881;28;20197;-73
2021/03/17 06:25:57;;;;;;;11.80;6.27;;;;;;;2.31;100.00;96592.75;5036653;28;20224;-73
2021/03/17 06:28:24;;;;;;;16.33;7.03;;;;;;;2.33;100.00;96591.69;5037342;28;20229;-72
2021/03/17 06:30:53;;;;;;;15.27;6.90;;;;;;;2.38;100.00;96593.91;5038297;28;20988;-73
2021/03/17 06:33:19;;;;;;;14.63;6.97;;;;;;;2.26;100.00;96594.88;5037440;28;20237;-73
2021/03/17 06:35:45;;;;;;;18.03;6.37;;;;;;;2.33;100.00;96598.63;5036704;28;20441;-73
2021/03/17 06:38:20;;;;;;;13.97;6.40;;;;;;;2.44;100.00;96595.09;5037878;28;20204;-73
2021/03/17 06:40:56;;;;;;;13.17;6.23;;;;;;;2.52;100.00;96600.53;5037231;28;20271;-73
2021/03/17 06:43:22;;;;;;;14.70;6.77;;;;;;;2.63;100.00;96599.69;5038196;28;20205;-73
2021/03/17 06:45:48;;;;;;;15.13;6.67;;;;;;;2.66;100.00;96599.44;5036517;28;20229;-73
2021/03/17 06:48:20;;;;;;;16.93;6.60;;;;;;;2.72;100.00;96610.19;5037127;28;21198;-73
2021/03/17 06:50:46;;;;;;;17.67;6.97;;;;;;;2.80;100.00;96620.00;5037122;28;20204;-72
2021/03/17 06:53:12;;;;;;;15.27;6.90;;;;;;;2.90;100.00;96618.31;5037904;28;20229;-72
2021/03/17 06:55:38;;;;;;;15.10;6.23;;;;;;;2.87;100.00;96624.59;5036271;28;20226;-72
2021/03/17 06:58:04;;;;;;;16.93;7.63;;;;;;;2.97;100.00;96622.09;5037312;28;20279;-72
2021/03/17 07:00:32;;;;;;;18.97;8.57;;;;;;;3.01;100.00;96621.72;5037677;28;20731;-72
2021/03/17 07:03:00;;;;;;;19.13;8.43;;;;;;;3.12;100.00;96629.53;5037068;28;20204;-72
2021/03/17 07:05:36;;;;;;;19.13;7.83;;;;;;;3.18;100.00;96621.19;5036111;28;20225;-72
2021/03/17 07:08:04;;;;;;;18.03;8.10;;;;;;;3.30;100.00;96625.44;5037098;28;20200;-72
2021/03/17 07:10:35;;;;;;;21.50;9.20;;;;;;;3.22;100.00;96620.84;5036618;28;20213;-73
2021/03/17 07:13:04;;;;;;;17.77;8.90;;;;;;;3.19;100.00;96621.06;5036958;28;20589;-72
2021/03/17 07:15:30;;;;;;;20.10;9.00;;;;;;;3.08;100.00;96622.88;5036346;28;20232;-73
2021/03/17 07:18:12;;;;;;;20.37;8.93;;;;;;;3.15;100.00;96631.88;5036563;28;20201;-73
2021/03/17 07:20:41;;;;;;;24.23;10.50;;;;;;;3.01;100.00;96630.34;5036646;28;20238;-73
2021/03/17 07:23:28;;;;;;;21.93;9.13;;;;;;;3.01;100.00;96634.75;5036578;28;21127;-73
2021/03/17 07:26:05;;;;;;;23.17;9.43;;;;;;;3.13;100.00;96636.34;5035921;28;20220;-73
2021/03/17 07:28:50;;;;;;;24.30;9.97;;;;;;;3.03;100.00;96636.28;5036379;28;20695;-72
2021/03/17 07:31:18;;;;;;;23.83;9.97;;;;;;;3.14;100.00;96632.81;5036748;28;20269;-73
2021/03/17 07:33:45;;;;;;;19.67;8.63;;;;;;;3.15;100.00;96637.06;5035959;28;20221;-73
2021/03/17 07:36:12;;;;;;;20.90;9.03;;;;;;;3.13;100.00;96641.56;5035895;28;20235;-73
2021/03/17 07:38:38;;;;;;;23.43;10.17;;;;;;;3.22;100.00;96635.63;5035808;28;20193;-73
2021/03/17 07:41:05;;;;;;;23.23;9.33;;;;;;;3.36;100.00;96638.78;5036220;28;20848;-73
2021/03/17 07:43:31;;;;;;;21.57;9.77;;;;;;;3.39;100.00;96641.13;5036331;28;20201;-73
2021/03/17 07:45:59;;;;;;;19.00;8.67;;;;;;;3.52;100.00;96638.38;5036410;28;20236;-73
2021/03/17 07:48:27;;;;;;;22.00;9.60;;;;;;;3.50;100.00;96632.44;5035770;28;20205;-73
2021/03/17 07:50:54;;;;;;;24.23;10.13;;;;;;;3.44;100.00;96646.00;5035770;28;20201;-73
2021/03/17 07:53:23;;;;;;;20.03;9.20;;;;;;;3.39;100.00;96638.53;5036660;28;20229;-73
2021/03/17 07:55:53;;;;;;;24.77;10.20;;;;;;;3.36;100.00;96649.19;5036476;28;20604;-73
2021/03/17 07:58:19;;;;;;;21.07;9.73;;;;;;;3.40;100.00;96647.16;5035446;28;20206;-73
2021/03/17 08:00:46;;;;;;;29.20;10.23;;;;;;;3.46;100.00;96654.47;5034505;28;20754;-73
2021/03/17 08:03:14;;;;;;;21.93;10.30;;;;;;;3.45;100.00;96655.44;5036031;28;20204;-73
2021/03/17 08:05:40;;;;;;;22.07;9.53;;;;;;;3.41;100.00;96667.91;5034353;28;20314;-73
2021/03/17 08:08:07;;;;;;;22.97;9.70;;;;;;;3.36;100.00;96658.78;5035782;28;20212;-73
2021/03/17 08:10:35;;;;;;;23.30;9.70;;;;;;;3.32;100.00;96662.59;5035419;28;20209;-73
2021/03/17 08:13:03;;;;;;;23.63;10.50;;;;;;;3.37;100.00;96657.84;5035952;28;20217;-73
2021/03/17 08:15:30;;;;;;;20.80;9.30;;;;;;;3.45;100.00;96658.03;5035012;28;20225;-73
2021/03/17 08:17:56;;;;;;;22.20;9.83;;;;;;;3.40;100.00;96654.97;5035966;28;20676;-73
2021/03/17 08:20:27;;;;;;;21.63;9.17;;;;;;;3.43;100.00;96652.13;5035421;28;20303;-73
2021/03/17 08:22:54;;;;;;;29.97;9.93;;;;;;;3.58;100.00;96638.69;5035480;28;20244;-73
2021/03/17 08:25:39;;;;;;;23.37;9.83;;;;;;;3.82;100.00;96645.31;5035192;28;20217;-73
2021/03/17 08:28:15;;;;;;;20.63;8.93;;;;;;;3.95;100.00;96642.53;5035251;28;20708;-72
2021/03/17 08:30:41;;;;;;;18.27;8.23;;;;;;;4.07;100.00;96637.09;5035220;28;20208;-72
2021/03/17 08:33:07;;;;;;;19.03;8.13;;;;;;;4.20;100.00;96637.75;5035429;28;20972;-73
2021/03/17 08:36:06;;;;;;;16.57;7.37;;;;;;;4.06;100.00;96634.63;5034915;28;20417;-73
2021/03/17 08:38:50;;;;;;;20.23;6.13;;;;;;;4.19;99.63;96636.09;5034812;28;20208;-73
2021/03/17 08:41:17;;;;;;;16.73;6.97;;;;;;;4.24;98.43;96629.53;5035676;28;20208;-73
2021/03/17 08:43:45;;;;;;;11.97;4.77;;;;;;;4.38;94.74;96636.22;5035129;28;20205;-73
2021/03/17 08:46:14;;;;;;;11.37;5.70;;;;;;;4.57;96.15;96636.25;5034726;28;20201;-72
2021/03/17 08:49:00;;;;;;;15.63;5.43;;;;;;;4.90;96.54;96634.19;5035333;28;20209;-72
2021/03/17 08:52:03;;;;;;;11.10;4.40;;;;;;;4.78;93.10;96639.66;5038551;28;20201;-73
2021/03/17 08:55:15;;;;;;;10.27;4.50;;;;;;;4.59;89.09;96634.38;5038358;28;20700;-73
2021/03/17 08:57:56;;;;;;;9.47;4.47;;;;;;;4.46;91.94;96629.34;5002911;28;20216;-73
2021/03/17 09:00:49;;;;;;;3.80;2.13;;;;;;;4.48;89.49;96632.69;5038445;28;20418;-72
2021/03/17 09:03:45;;;;;;;11.03;4.13;;;;;;;4.35;87.85;96631.22;5038819;28;20208;-72
2021/03/17 09:06:22;;;;;;;9.13;3.30;;;;;;;4.32;86.42;96631.50;5037766;28;20198;-72
2021/03/17 09:08:54;;;;;;;7.03;3.30;;;;;;;4.72;86.77;96634.97;5038486;28;20213;-72
2021/03/17 09:11:54;;;;;;;6.90;3.47;;;;;;;4.98;84.51;96642.19;5038537;28;20201;-72
2021/03/17 09:14:32;;;;;;;8.37;4.00;;;;;;;5.06;84.01;96635.34;5038886;28;20225;-72
2021/03/17 09:17:23;;;;;;;7.83;3.57;;;;;;;5.16;83.25;96628.34;5037886;28;20209;-72
2021/03/17 09:20:07;;;;;;;6.00;3.20;;;;;;;4.99;84.32;96633.38;5039082;28;20205;-72
2021/03/17 09:22:37;;;;;;;7.87;2.57;;;;;;;5.11;87.80;96638.38;5037814;28;20201;-72
2021/03/17 09:25:21;;;;;;;5.43;1.80;;;;;;;4.68;74.19;96644.00;5037208;28;20330;-72
2021/03/17 09:27:50;;;;;;;6.93;1.80;;;;;;;4.81;76.85;96629.75;5038628;28;20826;-72
2021/03/17 09:30:19;;;;;;;4.73;1.83;;;;;;;4.58;76.24;96643.16;5038389;28;20201;-72
2021/03/17 09:32:46;;;;;;;3.17;1.53;;;;;;;4.59;74.55;96639.59;5038437;28;20599;-72
2021/03/17 09:35:13;;;;;;;6.80;2.23;;;;;;;4.79;77.28;96638.72;5037114;28;20231;-72
2021/03/17 09:37:39;;;;;;;3.97;1.90;;;;;;;4.64;75.78;96632.19;5038219;28;20209;-72
2021/03/17 09:40:07;;;;;;;3.63;2.10;;;;;;;4.80;77.41;96628.13;5038292;28;20205;-72
2021/03/17 09:42:37;;;;;;;1.97;1.10;;;;;;;4.67;70.52;96637.97;5037990;28;20209;-72
2021/03/17 09:45:05;;;;;;;3.57;1.60;;;;;;;4.82;73.08;96626.19;5036846;28;20225;-72
2021/03/17 09:47:33;;;;;;;5.00;2.03;;;;;;;5.08;79.11;96630.81;5037418;28;20209;-72
2021/03/17 09:49:59;;;;;;;6.10;2.00;;;;;;;4.99;71.51;96634.22;5038122;28;20600;-72
2021/03/17 09:52:26;;;;;;;4.80;1.63;;;;;;;5.18;68.89;96631.66;5037940;28;20282;-72
2021/03/17 09:54:52;;;;;;;3.80;1.67;;;;;;;5.26;69.96;96628.38;5037534;28;20225;-72
2021/03/17 09:57:19;;;;;;;5.50;1.97;;;;;;;5.62;71.76;96623.31;5037365;28;20224;-72
2021/03/17 09:59:45;;;;;;;3.57;1.20;;;;;;;5.68;67.11;96623.56;5036768;28;20210;-72
2021/03/17 10:02:14;;;;;;;5.13;2.03;;;;;;;5.29;66.36;96622.88;5037253;28;20255;-72
2021/03/17 10:04:43;;;;;;;3.57;1.83;;;;;;;5.34;77.55;96623.28;5037455;28;20217;-72
2021/03/17 10:07:11;;;;;;;5.83;1.60;;;;;;;5.12;69.59;96623.53;5037441;28;20204;-72
2021/03/17 10:09:37;;;;;;;3.83;1.47;;;;;;;4.97;67.97;96617.84;5037255;28;20209;-72
2021/03/17 10:12:07;;;;;;;4.00;1.83;;;;;;;4.99;71.24;96615.09;5037696;28;21146;-72
2021/03/17 10:14:34;;;;;;;5.77;1.70;;;;;;;5.42;73.99;96602.53;5037487;28;20680;-73
2021/03/17 10:17:04;;;;;;;5.67;2.63;;;;;;;5.67;78.63;96603.63;5036347;28;20212;-72
2021/03/17 10:19:30;;;;;;;6.13;2.40;;;;;;;5.82;73.33;96591.00;5037744;28;20202;-73
2021/03/17 10:21:58;;;;;;;7.07;2.30;;;;;;;5.92;69.72;96589.16;5038077;28;20205;-73
2021/03/17 10:24:41;;;;;;;7.00;2.60;;;;;;;5.80;66.59;96585.06;5037271;28;20219;-73
2021/03/17 10:27:09;;;;;;;4.43;2.40;;;;;;;5.98;70.05;96586.81;5036224;28;20212;-72
2021/03/17 10:29:35;;;;;;;6.87;2.53;;;;;;;6.11;70.29;96590.78;5037383;28;20197;-73
2021/03/17 10:32:04;;;;;;;5.80;2.10;;;;;;;6.08;70.98;96592.84;5037237;28;20206;-73
2021/03/17 10:34:30;;;;;;;5.57;2.33;;;;;;;6.09;73.53;96591.91;5037026;28;20228;-73
2021/03/17 10:36:58;;;;;;;4.03;1.90;;;;;;;6.06;65.81;96587.78;5036322;28;20205;-73
2021/03/17 10:39:27;;;;;;;6.80;2.63;;;;;;;5.98;71.54;96586.81;5036978;28;20202;-73
2021/03/17 10:41:53;;;;;;;5.33;1.80;;;;;;;5.71;67.20;96594.53;5036379;28;20279;-73
2021/03/17 10:44:21;;;;;;;6.37;2.20;;;;;;;5.43;68.41;96597.16;5037253;28;20217;-72
2021/03/17 10:47:15;;;;;;;4.77;1.90;;;;;;;5.03;70.67;96598.22;5036368;28;20197;-72
2021/03/17 10:49:44;;;;;;;4.90;1.80;;;;;;;4.90;73.14;96601.09;5000769;28;20971;-72
2021/03/17 10:52:12;;;;;;;7.07;2.63;;;;;;;4.82;73.29;96606.16;5037069;28;20676;-73
2021/03/17 10:54:40;;;;;;;9.27;2.50;;;;;;;4.63;72.15;96614.88;5036157;28;20700;-73
2021/03/17 10:57:06;;;;;;;5.93;2.30;;;;;;;4.59;70.38;96600.44;5035870;28;20202;-73
2021/03/17 10:59:34;;;;;;;5.27;2.63;;;;;;;4.58;76.86;96606.59;5036625;28;20331;-73
2021/03/17 11:02:23;;;;;;;6.77;2.80;;;;;;;4.62;78.02;96608.84;5036870;28;20204;-73
2021/03/17 11:05:09;;;;;;;7.17;2.47;;;;;;;4.74;79.81;96607.78;5036127;28;20231;-73
2021/03/17 11:07:55;;;;;;;4.47;2.10;;;;;;;4.85;72.76;96611.09;5036546;28;20208;-73
2021/03/17 11:10:29;;;;;;;4.37;2.13;;;;;;;4.79;71.11;96610.00;5036666;28;20200;-72
2021/03/17 11:12:55;;;;;;;4.13;1.73;;;;;;;4.73;71.70;96606.09;5035807;28;20225;-73
2021/03/17 11:15:24;;;;;;;4.03;1.63;;;;;;;4.64;69.73;96611.31;5035664;28;20225;-73
2021/03/17 11:17:52;;;;;;;3.50;1.87;;;;;;;4.77;71.66;96612.72;5036421;28;20941;-74
2021/03/17 11:20:18;;;;;;;3.63;1.90;;;;;;;4.64;69.85;96606.91;5036822;28;20197;-74
2021/03/17 11:22:44;;;;;;;3.07;1.57;;;;;;;4.68;73.31;96617.91;5036105;28;20267;-73
2021/03/17 11:25:12;;;;;;;5.30;2.23;;;;;;;4.68;70.16;96612.69;5035961;28;20217;-73
2021/03/17 11:27:39;;;;;;;3.40;1.43;;;;;;;4.61;70.19;96619.38;5036090;28;20201;-73
2021/03/17 11:30:07;;;;;;;3.10;1.37;;;;;;;4.52;68.55;96612.34;5036201;28;20205;-72
2021/03/17 11:32:33;;;;;;;2.10;1.10;;;;;;;4.44;67.22;96618.25;5036186;28;20210;-72
2021/03/17 11:34:59;;;;;;;2.53;1.30;;;;;;;4.33;65.46;96610.50;5036898;28;20316;-72
2021/03/17 11:37:25;;;;;;;1.93;1.00;;;;;;;4.40;65.58;96616.00;5035979;28;21074;-72
2021/03/17 11:39:51;;;;;;;3.90;1.20;;;;;;;4.53;68.41;96612.25;5035558;28;20251;-73